sensor_id;sensor_type;location;lat;lon;timestamp;P1;durP1;ratioP1;P2;durP2;ratioP2
24635;SDS011;12772;49.794;10.024;2023-10-13T00:02:29;8.50;;;5.32;;
24635;SDS011;12772;49.794;10.024;2023-10-13T00:06:31;6.90;;;5.13;;
24635;SDS011;12772;49.794;10.024;2023-10-13T00:10:33;8.82;;;5.13;;
24635;SDS011;12772;49.794;10.024;2023-10-13T00:14:35;12.15;;;5.28;;
24635;SDS011;12772;49.794;10.024;2023-10-13T00:18:37;10.77;;;5.43;;
24635;SDS011;12772;49.794;10.024;2023-10-13T00:22:42;8.20;;;4.85;;
24635;SDS011;12772;49.794;10.024;2023-10-13T00:26:45;11.50;;;5.78;;
24635;SDS011;12772;49.794;10.024;2023-10-13T00:30:50;9.70;;;4.93;;
24635;SDS011;12772;49.794;10.024;2023-10-13T00:34:53;7.22;;;4.95;;
24635;SDS011;12772;49.794;10.024;2023-10-13T00:38:57;8.45;;;5.63;;
24635;SDS011;12772;49.794;10.024;2023-10-13T00:43:01;7.60;;;5.78;;
24635;SDS011;12772;49.794;10.024;2023-10-13T00:47:25;6.70;;;5.40;;
24635;SDS011;12772;49.794;10.024;2023-10-13T00:51:48;10.50;;;4.80;;
24635;SDS011;12772;49.794;10.024;2023-10-13T00:55:51;8.35;;;5.63;;
24635;SDS011;12772;49.794;10.024;2023-10-13T00:59:56;7.88;;;5.90;;
24635;SDS011;12772;49.794;10.024;2023-10-13T01:03:58;6.85;;;5.15;;
24635;SDS011;12772;49.794;10.024;2023-10-13T01:08:02;8.25;;;5.10;;
24635;SDS011;12772;49.794;10.024;2023-10-13T01:12:04;8.48;;;5.32;;
24635;SDS011;12772;49.794;10.024;2023-10-13T01:16:09;10.98;;;5.30;;
24635;SDS011;12772;49.794;10.024;2023-10-13T01:20:11;8.02;;;4.88;;
24635;SDS011;12772;49.794;10.024;2023-10-13T01:24:22;9.60;;;4.97;;
24635;SDS011;12772;49.794;10.024;2023-10-13T01:28:25;5.10;;;4.45;;
24635;SDS011;12772;49.794;10.024;2023-10-13T01:32:27;10.13;;;5.78;;
24635;SDS011;12772;49.794;10.024;2023-10-13T01:36:29;8.73;;;4.53;;
24635;SDS011;12772;49.794;10.024;2023-10-13T01:40:36;7.90;;;4.63;;
24635;SDS011;12772;49.794;10.024;2023-10-13T01:44:38;9.05;;;5.22;;
24635;SDS011;12772;49.794;10.024;2023-10-13T01:48:40;6.55;;;4.78;;
24635;SDS011;12772;49.794;10.024;2023-10-13T01:52:44;7.07;;;4.95;;
24635;SDS011;12772;49.794;10.024;2023-10-13T01:56:45;7.47;;;5.00;;
24635;SDS011;12772;49.794;10.024;2023-10-13T02:00:49;5.97;;;5.38;;
24635;SDS011;12772;49.794;10.024;2023-10-13T02:04:51;8.32;;;5.35;;
24635;SDS011;12772;49.794;10.024;2023-10-13T02:08:58;6.18;;;5.38;;
24635;SDS011;12772;49.794;10.024;2023-10-13T02:13:13;8.70;;;5.13;;
24635;SDS011;12772;49.794;10.024;2023-10-13T02:17:18;9.23;;;5.10;;
24635;SDS011;12772;49.794;10.024;2023-10-13T02:21:24;6.82;;;5.65;;
24635;SDS011;12772;49.794;10.024;2023-10-13T02:25:32;7.35;;;5.22;;
24635;SDS011;12772;49.794;10.024;2023-10-13T02:29:43;9.25;;;5.20;;
24635;SDS011;12772;49.794;10.024;2023-10-13T02:33:46;6.75;;;5.43;;
24635;SDS011;12772;49.794;10.024;2023-10-13T02:37:48;9.10;;;5.55;;
24635;SDS011;12772;49.794;10.024;2023-10-13T02:41:56;8.23;;;5.00;;
24635;SDS011;12772;49.794;10.024;2023-10-13T02:45:58;11.57;;;6.15;;
24635;SDS011;12772;49.794;10.024;2023-10-13T02:50:01;14.18;;;6.40;;
24635;SDS011;12772;49.794;10.024;2023-10-13T02:54:12;10.32;;;6.20;;
24635;SDS011;12772;49.794;10.024;2023-10-13T02:58:18;11.00;;;6.30;;
24635;SDS011;12772;49.794;10.024;2023-10-13T03:02:21;10.10;;;6.05;;
24635;SDS011;12772;49.794;10.024;2023-10-13T03:06:26;9.25;;;6.25;;
24635;SDS011;12772;49.794;10.024;2023-10-13T03:10:33;7.30;;;6.38;;
24635;SDS011;12772;49.794;10.024;2023-10-13T03:14:40;9.38;;;6.60;;
24635;SDS011;12772;49.794;10.024;2023-10-13T03:18:43;11.98;;;6.40;;
24635;SDS011;12772;49.794;10.024;2023-10-13T03:22:54;10.85;;;6.63;;
24635;SDS011;12772;49.794;10.024;2023-10-13T03:26:56;9.60;;;6.53;;
24635;SDS011;12772;49.794;10.024;2023-10-13T03:30:59;12.57;;;6.43;;
24635;SDS011;12772;49.794;10.024;2023-10-13T03:35:01;10.55;;;6.07;;
24635;SDS011;12772;49.794;10.024;2023-10-13T03:39:13;9.88;;;7.28;;
24635;SDS011;12772;49.794;10.024;2023-10-13T03:43:15;10.80;;;6.55;;
24635;SDS011;12772;49.794;10.024;2023-10-13T03:47:22;11.50;;;6.32;;
24635;SDS011;12772;49.794;10.024;2023-10-13T03:51:27;10.32;;;6.20;;
24635;SDS011;12772;49.794;10.024;2023-10-13T03:55:32;11.20;;;6.75;;
24635;SDS011;12772;49.794;10.024;2023-10-13T03:59:36;8.95;;;6.32;;
24635;SDS011;12772;49.794;10.024;2023-10-13T04:03:40;10.18;;;6.50;;
24635;SDS011;12772;49.794;10.024;2023-10-13T04:08:01;9.07;;;6.65;;
24635;SDS011;12772;49.794;10.024;2023-10-13T04:12:22;15.68;;;7.63;;
24635;SDS011;12772;49.794;10.024;2023-10-13T04:16:38;10.63;;;6.60;;
24635;SDS011;12772;49.794;10.024;2023-10-13T04:20:53;11.88;;;7.25;;
24635;SDS011;12772;49.794;10.024;2023-10-13T04:25:04;10.88;;;7.80;;
24635;SDS011;12772;49.794;10.024;2023-10-13T04:29:26;9.77;;;7.13;;
24635;SDS011;12772;49.794;10.024;2023-10-13T04:33:46;10.57;;;7.00;;
24635;SDS011;12772;49.794;10.024;2023-10-13T04:37:56;9.63;;;6.25;;
24635;SDS011;12772;49.794;10.024;2023-10-13T04:42:01;9.02;;;6.80;;
24635;SDS011;12772;49.794;10.024;2023-10-13T04:46:14;10.70;;;6.57;;
24635;SDS011;12772;49.794;10.024;2023-10-13T04:50:25;8.70;;;6.78;;
24635;SDS011;12772;49.794;10.024;2023-10-13T04:54:36;10.98;;;6.90;;
24635;SDS011;12772;49.794;10.024;2023-10-13T04:58:45;14.90;;;6.00;;
24635;SDS011;12772;49.794;10.024;2023-10-13T05:03:01;8.57;;;6.68;;
24635;SDS011;12772;49.794;10.024;2023-10-13T05:07:31;9.40;;;6.68;;
24635;SDS011;12772;49.794;10.024;2023-10-13T05:11:51;8.30;;;7.25;;
24635;SDS011;12772;49.794;10.024;2023-10-13T05:16:13;7.40;;;5.90;;
24635;SDS011;12772;49.794;10.024;2023-10-13T05:20:32;10.10;;;6.22;;
24635;SDS011;12772;49.794;10.024;2023-10-13T05:24:52;8.40;;;6.20;;
24635;SDS011;12772;49.794;10.024;2023-10-13T05:29:11;6.68;;;5.97;;
24635;SDS011;12772;49.794;10.024;2023-10-13T05:33:30;9.65;;;6.65;;
24635;SDS011;12772;49.794;10.024;2023-10-13T05:37:50;6.35;;;5.57;;
24635;SDS011;12772;49.794;10.024;2023-10-13T05:42:10;13.88;;;5.90;;
24635;SDS011;12772;49.794;10.024;2023-10-13T05:46:30;7.78;;;6.65;;
24635;SDS011;12772;49.794;10.024;2023-10-13T05:51:01;10.45;;;5.75;;
24635;SDS011;12772;49.794;10.024;2023-10-13T05:55:22;7.78;;;6.10;;
24635;SDS011;12772;49.794;10.024;2023-10-13T05:59:43;9.23;;;5.80;;
24635;SDS011;12772;49.794;10.024;2023-10-13T06:04:03;8.32;;;6.55;;
24635;SDS011;12772;49.794;10.024;2023-10-13T06:08:23;9.07;;;6.13;;
24635;SDS011;12772;49.794;10.024;2023-10-13T06:12:38;8.93;;;5.88;;
24635;SDS011;12772;49.794;10.024;2023-10-13T06:16:58;8.80;;;5.20;;
24635;SDS011;12772;49.794;10.024;2023-10-13T06:21:19;11.10;;;5.85;;
24635;SDS011;12772;49.794;10.024;2023-10-13T06:25:39;9.45;;;5.38;;
24635;SDS011;12772;49.794;10.024;2023-10-13T06:29:59;10.55;;;5.32;;
24635;SDS011;12772;49.794;10.024;2023-10-13T06:34:03;6.32;;;5.32;;
24635;SDS011;12772;49.794;10.024;2023-10-13T06:38:07;7.90;;;5.25;;
24635;SDS011;12772;49.794;10.024;2023-10-13T06:42:21;10.63;;;5.35;;
24635;SDS011;12772;49.794;10.024;2023-10-13T06:46:29;8.57;;;5.40;;
24635;SDS011;12772;49.794;10.024;2023-10-13T06:50:34;9.40;;;5.68;;
24635;SDS011;12772;49.794;10.024;2023-10-13T06:54:42;9.07;;;5.07;;
24635;SDS011;12772;49.794;10.024;2023-10-13T06:58:44;9.32;;;5.40;;
24635;SDS011;12772;49.794;10.024;2023-10-13T07:02:47;9.07;;;5.47;;
24635;SDS011;12772;49.794;10.024;2023-10-13T07:06:52;9.48;;;5.50;;
24635;SDS011;12772;49.794;10.024;2023-10-13T07:10:55;7.53;;;4.95;;
24635;SDS011;12772;49.794;10.024;2023-10-13T07:15:03;9.13;;;4.82;;
24635;SDS011;12772;49.794;10.024;2023-10-13T07:19:05;7.43;;;5.25;;
24635;SDS011;12772;49.794;10.024;2023-10-13T07:23:12;9.82;;;6.05;;
24635;SDS011;12772;49.794;10.024;2023-10-13T07:31:24;7.82;;;4.68;;
24635;SDS011;12772;49.794;10.024;2023-10-13T07:35:27;6.35;;;4.55;;
24635;SDS011;12772;49.794;10.024;2023-10-13T07:39:31;10.68;;;4.45;;
24635;SDS011;12772;49.794;10.024;2023-10-13T07:43:35;6.78;;;4.88;;
24635;SDS011;12772;49.794;10.024;2023-10-13T07:47:38;8.35;;;4.50;;
24635;SDS011;12772;49.794;10.024;2023-10-13T07:51:40;9.65;;;4.78;;
24635;SDS011;12772;49.794;10.024;2023-10-13T07:55:45;7.05;;;4.43;;
24635;SDS011;12772;49.794;10.024;2023-10-13T07:59:48;11.38;;;4.88;;
24635;SDS011;12772;49.794;10.024;2023-10-13T08:03:53;6.68;;;4.68;;
24635;SDS011;12772;49.794;10.024;2023-10-13T08:08:09;8.43;;;4.80;;
24635;SDS011;12772;49.794;10.024;2023-10-13T08:12:15;8.95;;;5.18;;
24635;SDS011;12772;49.794;10.024;2023-10-13T08:16:22;8.52;;;4.80;;
24635;SDS011;12772;49.794;10.024;2023-10-13T08:20:30;6.85;;;4.55;;
24635;SDS011;12772;49.794;10.024;2023-10-13T08:24:38;8.57;;;4.63;;
24635;SDS011;12772;49.794;10.024;2023-10-13T08:28:54;9.90;;;4.82;;
24635;SDS011;12772;49.794;10.024;2023-10-13T08:33:20;9.40;;;4.97;;
24635;SDS011;12772;49.794;10.024;2023-10-13T08:37:26;8.65;;;4.85;;
24635;SDS011;12772;49.794;10.024;2023-10-13T08:41:30;7.53;;;4.97;;
24635;SDS011;12772;49.794;10.024;2023-10-13T08:45:39;8.90;;;5.20;;
24635;SDS011;12772;49.794;10.024;2023-10-13T08:49:54;8.30;;;4.70;;
24635;SDS011;12772;49.794;10.024;2023-10-13T08:54:11;7.88;;;4.00;;
24635;SDS011;12772;49.794;10.024;2023-10-13T08:58:25;9.23;;;5.10;;
24635;SDS011;12772;49.794;10.024;2023-10-13T09:02:47;9.63;;;4.70;;
24635;SDS011;12772;49.794;10.024;2023-10-13T09:07:00;8.75;;;4.57;;
24635;SDS011;12772;49.794;10.024;2023-10-13T09:11:15;8.10;;;4.70;;
24635;SDS011;12772;49.794;10.024;2023-10-13T09:15:30;5.25;;;4.18;;
24635;SDS011;12772;49.794;10.024;2023-10-13T09:19:52;9.10;;;3.90;;
24635;SDS011;12772;49.794;10.024;2023-10-13T09:23:56;5.38;;;4.30;;
24635;SDS011;12772;49.794;10.024;2023-10-13T09:28:28;6.07;;;4.28;;
24635;SDS011;12772;49.794;10.024;2023-10-13T09:32:31;7.80;;;4.50;;
24635;SDS011;12772;49.794;10.024;2023-10-13T09:36:43;8.25;;;4.20;;
24635;SDS011;12772;49.794;10.024;2023-10-13T09:40:47;5.43;;;4.10;;
24635;SDS011;12772;49.794;10.024;2023-10-13T09:44:51;7.47;;;4.28;;
24635;SDS011;12772;49.794;10.024;2023-10-13T09:48:58;7.78;;;4.50;;
24635;SDS011;12772;49.794;10.024;2023-10-13T09:53:08;5.00;;;4.47;;
24635;SDS011;12772;49.794;10.024;2023-10-13T09:57:15;9.95;;;4.55;;
24635;SDS011;12772;49.794;10.024;2023-10-13T10:01:24;8.43;;;4.57;;
24635;SDS011;12772;49.794;10.024;2023-10-13T10:05:38;5.38;;;4.03;;
24635;SDS011;12772;49.794;10.024;2023-10-13T10:09:56;7.22;;;4.30;;
24635;SDS011;12772;49.794;10.024;2023-10-13T10:14:28;6.55;;;4.75;;
24635;SDS011;12772;49.794;10.024;2023-10-13T10:18:37;10.93;;;4.38;;
24635;SDS011;12772;49.794;10.024;2023-10-13T10:22:40;6.35;;;4.10;;
24635;SDS011;12772;49.794;10.024;2023-10-13T10:26:50;5.18;;;3.80;;
24635;SDS011;12772;49.794;10.024;2023-10-13T10:30:53;8.63;;;4.60;;
24635;SDS011;12772;49.794;10.024;2023-10-13T10:35:12;7.65;;;4.30;;
24635;SDS011;12772;49.794;10.024;2023-10-13T10:39:20;8.90;;;4.57;;
24635;SDS011;12772;49.794;10.024;2023-10-13T10:47:47;4.28;;;3.60;;
24635;SDS011;12772;49.794;10.024;2023-10-13T10:51:51;4.95;;;3.95;;
24635;SDS011;12772;49.794;10.024;2023-10-13T10:56:04;4.18;;;3.78;;
24635;SDS011;12772;49.794;10.024;2023-10-13T11:00:20;9.93;;;4.50;;
24635;SDS011;12772;49.794;10.024;2023-10-13T11:04:26;9.63;;;3.83;;
24635;SDS011;12772;49.794;10.024;2023-10-13T11:08:34;9.10;;;4.35;;
24635;SDS011;12772;49.794;10.024;2023-10-13T11:12:38;4.07;;;3.50;;
24635;SDS011;12772;49.794;10.024;2023-10-13T11:16:46;9.10;;;4.35;;
24635;SDS011;12772;49.794;10.024;2023-10-13T11:20:55;8.35;;;4.60;;
24635;SDS011;12772;49.794;10.024;2023-10-13T11:25:02;4.00;;;3.65;;
24635;SDS011;12772;49.794;10.024;2023-10-13T11:29:11;9.25;;;4.80;;
24635;SDS011;12772;49.794;10.024;2023-10-13T11:33:13;8.07;;;4.30;;
24635;SDS011;12772;49.794;10.024;2023-10-13T11:37:19;5.65;;;3.25;;
24635;SDS011;12772;49.794;10.024;2023-10-13T11:41:38;7.25;;;4.72;;
24635;SDS011;12772;49.794;10.024;2023-10-13T11:45:47;5.15;;;3.90;;
24635;SDS011;12772;49.794;10.024;2023-10-13T11:49:56;6.13;;;4.10;;
24635;SDS011;12772;49.794;10.024;2023-10-13T11:53:58;9.13;;;4.95;;
24635;SDS011;12772;49.794;10.024;2023-10-13T11:58:00;6.80;;;4.43;;
24635;SDS011;12772;49.794;10.024;2023-10-13T12:02:06;9.88;;;4.40;;
24635;SDS011;12772;49.794;10.024;2023-10-13T12:06:26;8.32;;;4.10;;
24635;SDS011;12772;49.794;10.024;2023-10-13T12:10:35;9.25;;;4.43;;
24635;SDS011;12772;49.794;10.024;2023-10-13T12:14:50;7.00;;;3.70;;
24635;SDS011;12772;49.794;10.024;2023-10-13T12:18:55;8.70;;;3.97;;
24635;SDS011;12772;49.794;10.024;2023-10-13T12:22:58;6.53;;;4.25;;
24635;SDS011;12772;49.794;10.024;2023-10-13T12:27:09;10.18;;;4.45;;
24635;SDS011;12772;49.794;10.024;2023-10-13T12:31:21;6.75;;;4.28;;
24635;SDS011;12772;49.794;10.024;2023-10-13T12:35:27;5.57;;;4.30;;
24635;SDS011;12772;49.794;10.024;2023-10-13T12:39:35;5.63;;;4.00;;
24635;SDS011;12772;49.794;10.024;2023-10-13T12:43:55;6.25;;;4.22;;
24635;SDS011;12772;49.794;10.024;2023-10-13T12:48:17;5.75;;;4.63;;
24635;SDS011;12772;49.794;10.024;2023-10-13T12:52:45;5.60;;;3.92;;
24635;SDS011;12772;49.794;10.024;2023-10-13T12:56:47;6.88;;;4.30;;
24635;SDS011;12772;49.794;10.024;2023-10-13T13:00:49;5.93;;;4.22;;
24635;SDS011;12772;49.794;10.024;2023-10-13T13:04:56;6.35;;;4.55;;
24635;SDS011;12772;49.794;10.024;2023-10-13T13:09:06;5.30;;;4.00;;
24635;SDS011;12772;49.794;10.024;2023-10-13T13:13:10;5.75;;;4.18;;
24635;SDS011;12772;49.794;10.024;2023-10-13T13:17:12;7.80;;;4.20;;
24635;SDS011;12772;49.794;10.024;2023-10-13T13:21:14;5.43;;;4.55;;
24635;SDS011;12772;49.794;10.024;2023-10-13T13:25:23;6.15;;;4.43;;
24635;SDS011;12772;49.794;10.024;2023-10-13T13:29:30;6.53;;;4.53;;
24635;SDS011;12772;49.794;10.024;2023-10-13T13:33:32;4.75;;;4.15;;
24635;SDS011;12772;49.794;10.024;2023-10-13T13:37:39;4.97;;;3.90;;
24635;SDS011;12772;49.794;10.024;2023-10-13T13:41:43;4.05;;;3.65;;
24635;SDS011;12772;49.794;10.024;2023-10-13T13:45:45;7.18;;;4.10;;
24635;SDS011;12772;49.794;10.024;2023-10-13T13:49:47;8.77;;;4.20;;
24635;SDS011;12772;49.794;10.024;2023-10-13T13:53:53;9.57;;;4.00;;
24635;SDS011;12772;49.794;10.024;2023-10-13T13:57:57;6.55;;;4.07;;
24635;SDS011;12772;49.794;10.024;2023-10-13T14:02:00;4.60;;;3.80;;
24635;SDS011;12772;49.794;10.024;2023-10-13T14:06:06;8.35;;;4.45;;
24635;SDS011;12772;49.794;10.024;2023-10-13T14:10:18;8.48;;;4.05;;
24635;SDS011;12772;49.794;10.024;2023-10-13T14:14:33;5.45;;;4.28;;
24635;SDS011;12772;49.794;10.024;2023-10-13T14:18:34;6.18;;;3.72;;
24635;SDS011;12772;49.794;10.024;2023-10-13T14:22:36;7.68;;;3.97;;
24635;SDS011;12772;49.794;10.024;2023-10-13T14:26:38;7.55;;;4.00;;
24635;SDS011;12772;49.794;10.024;2023-10-13T14:30:43;5.35;;;3.53;;
24635;SDS011;12772;49.794;10.024;2023-10-13T14:34:46;5.70;;;3.50;;
24635;SDS011;12772;49.794;10.024;2023-10-13T14:38:55;4.60;;;3.60;;
24635;SDS011;12772;49.794;10.024;2023-10-13T14:42:58;6.18;;;3.80;;
24635;SDS011;12772;49.794;10.024;2023-10-13T14:47:01;6.35;;;3.72;;
24635;SDS011;12772;49.794;10.024;2023-10-13T14:51:12;5.55;;;3.40;;
24635;SDS011;12772;49.794;10.024;2023-10-13T14:55:14;6.25;;;3.58;;
24635;SDS011;12772;49.794;10.024;2023-10-13T14:59:38;11.30;;;4.20;;
24635;SDS011;12772;49.794;10.024;2023-10-13T15:03:41;6.32;;;3.70;;
24635;SDS011;12772;49.794;10.024;2023-10-13T15:07:46;3.85;;;3.30;;
24635;SDS011;12772;49.794;10.024;2023-10-13T15:11:49;7.18;;;3.20;;
24635;SDS011;12772;49.794;10.024;2023-10-13T15:15:53;6.93;;;3.83;;
24635;SDS011;12772;49.794;10.024;2023-10-13T15:19:55;5.57;;;3.53;;
24635;SDS011;12772;49.794;10.024;2023-10-13T15:24:03;4.63;;;3.28;;
24635;SDS011;12772;49.794;10.024;2023-10-13T15:28:13;4.63;;;3.50;;
24635;SDS011;12772;49.794;10.024;2023-10-13T15:32:19;5.53;;;3.28;;
24635;SDS011;12772;49.794;10.024;2023-10-13T15:36:42;5.63;;;3.58;;
24635;SDS011;12772;49.794;10.024;2023-10-13T15:40:45;5.05;;;3.58;;
24635;SDS011;12772;49.794;10.024;2023-10-13T15:44:47;6.78;;;4.03;;
24635;SDS011;12772;49.794;10.024;2023-10-13T15:48:51;6.97;;;3.63;;
24635;SDS011;12772;49.794;10.024;2023-10-13T15:52:54;4.97;;;3.10;;
24635;SDS011;12772;49.794;10.024;2023-10-13T15:56:56;5.63;;;3.70;;
24635;SDS011;12772;49.794;10.024;2023-10-13T16:00:59;6.90;;;2.80;;
24635;SDS011;12772;49.794;10.024;2023-10-13T16:05:01;5.93;;;3.60;;
24635;SDS011;12772;49.794;10.024;2023-10-13T16:09:07;8.68;;;3.30;;
24635;SDS011;12772;49.794;10.024;2023-10-13T16:13:15;7.35;;;3.75;;
24635;SDS011;12772;49.794;10.024;2023-10-13T16:17:20;4.55;;;3.30;;
24635;SDS011;12772;49.794;10.024;2023-10-13T16:21:23;5.38;;;3.30;;
24635;SDS011;12772;49.794;10.024;2023-10-13T16:25:25;5.20;;;3.83;;
24635;SDS011;12772;49.794;10.024;2023-10-13T16:29:28;7.22;;;3.33;;
24635;SDS011;12772;49.794;10.024;2023-10-13T16:33:31;8.40;;;3.70;;
24635;SDS011;12772;49.794;10.024;2023-10-13T16:37:36;4.38;;;3.88;;
24635;SDS011;12772;49.794;10.024;2023-10-13T16:41:38;4.50;;;3.40;;
24635;SDS011;12772;49.794;10.024;2023-10-13T16:45:41;4.97;;;3.67;;
24635;SDS011;12772;49.794;10.024;2023-10-13T16:49:45;7.57;;;3.60;;
24635;SDS011;12772;49.794;10.024;2023-10-13T16:53:48;8.38;;;3.95;;
24635;SDS011;12772;49.794;10.024;2023-10-13T16:57:50;5.55;;;3.42;;
24635;SDS011;12772;49.794;10.024;2023-10-13T17:01:52;4.90;;;3.10;;
24635;SDS011;12772;49.794;10.024;2023-10-13T17:05:54;4.28;;;3.17;;
24635;SDS011;12772;49.794;10.024;2023-10-13T17:09:57;8.68;;;3.53;;
24635;SDS011;12772;49.794;10.024;2023-10-13T17:13:59;4.53;;;3.22;;
24635;SDS011;12772;49.794;10.024;2023-10-13T17:18:06;6.25;;;3.35;;
24635;SDS011;12772;49.794;10.024;2023-10-13T17:22:08;5.78;;;3.08;;
24635;SDS011;12772;49.794;10.024;2023-10-13T17:26:13;4.88;;;3.05;;
24635;SDS011;12772;49.794;10.024;2023-10-13T17:30:15;4.05;;;3.17;;
24635;SDS011;12772;49.794;10.024;2023-10-13T17:34:17;5.18;;;3.10;;
24635;SDS011;12772;49.794;10.024;2023-10-13T17:38:19;6.60;;;3.80;;
24635;SDS011;12772;49.794;10.024;2023-10-13T17:42:21;5.63;;;3.30;;
24635;SDS011;12772;49.794;10.024;2023-10-13T17:46:23;3.90;;;3.17;;
24635;SDS011;12772;49.794;10.024;2023-10-13T17:50:25;4.40;;;3.58;;
24635;SDS011;12772;49.794;10.024;2023-10-13T17:54:28;9.23;;;4.20;;
24635;SDS011;12772;49.794;10.024;2023-10-13T17:58:31;4.55;;;3.85;;
24635;SDS011;12772;49.794;10.024;2023-10-13T18:02:33;9.55;;;4.13;;
24635;SDS011;12772;49.794;10.024;2023-10-13T18:06:35;7.28;;;4.05;;
24635;SDS011;12772;49.794;10.024;2023-10-13T18:10:38;4.85;;;3.38;;
24635;SDS011;12772;49.794;10.024;2023-10-13T18:14:44;8.75;;;3.70;;
24635;SDS011;12772;49.794;10.024;2023-10-13T18:18:46;7.28;;;3.88;;
24635;SDS011;12772;49.794;10.024;2023-10-13T18:22:50;12.10;;;3.70;;
24635;SDS011;12772;49.794;10.024;2023-10-13T18:26:54;6.72;;;3.42;;
24635;SDS011;12772;49.794;10.024;2023-10-13T18:30:57;4.25;;;3.13;;
24635;SDS011;12772;49.794;10.024;2023-10-13T18:35:07;11.48;;;3.92;;
24635;SDS011;12772;49.794;10.024;2023-10-13T18:39:16;8.07;;;3.50;;
24635;SDS011;12772;49.794;10.024;2023-10-13T18:43:20;5.30;;;3.42;;
24635;SDS011;12772;49.794;10.024;2023-10-13T18:47:23;7.35;;;3.42;;
24635;SDS011;12772;49.794;10.024;2023-10-13T18:51:25;7.00;;;4.20;;
24635;SDS011;12772;49.794;10.024;2023-10-13T18:55:27;7.05;;;3.50;;
24635;SDS011;12772;49.794;10.024;2023-10-13T18:59:29;5.75;;;3.70;;
24635;SDS011;12772;49.794;10.024;2023-10-13T19:03:34;4.78;;;3.28;;
24635;SDS011;12772;49.794;10.024;2023-10-13T19:07:37;8.05;;;3.58;;
24635;SDS011;12772;49.794;10.024;2023-10-13T19:11:40;4.32;;;3.30;;
24635;SDS011;12772;49.794;10.024;2023-10-13T19:15:46;5.13;;;3.67;;
24635;SDS011;12772;49.794;10.024;2023-10-13T19:19:48;7.00;;;3.65;;
24635;SDS011;12772;49.794;10.024;2023-10-13T19:23:50;6.22;;;3.78;;
24635;SDS011;12772;49.794;10.024;2023-10-13T19:27:53;5.55;;;3.50;;
24635;SDS011;12772;49.794;10.024;2023-10-13T19:31:55;6.00;;;3.60;;
24635;SDS011;12772;49.794;10.024;2023-10-13T19:35:57;6.60;;;3.72;;
24635;SDS011;12772;49.794;10.024;2023-10-13T19:40:12;4.57;;;3.28;;
24635;SDS011;12772;49.794;10.024;2023-10-13T19:44:14;5.38;;;3.00;;
24635;SDS011;12772;49.794;10.024;2023-10-13T19:48:16;5.35;;;3.58;;
24635;SDS011;12772;49.794;10.024;2023-10-13T19:52:18;5.57;;;3.75;;
24635;SDS011;12772;49.794;10.024;2023-10-13T19:56:24;6.07;;;3.58;;
24635;SDS011;12772;49.794;10.024;2023-10-13T20:00:26;7.75;;;3.67;;
24635;SDS011;12772;49.794;10.024;2023-10-13T20:04:33;6.85;;;3.80;;
24635;SDS011;12772;49.794;10.024;2023-10-13T20:08:37;7.82;;;3.47;;
24635;SDS011;12772;49.794;10.024;2023-10-13T20:12:40;5.75;;;3.22;;
24635;SDS011;12772;49.794;10.024;2023-10-13T20:16:42;5.80;;;3.63;;
24635;SDS011;12772;49.794;10.024;2023-10-13T20:20:44;7.95;;;2.88;;
24635;SDS011;12772;49.794;10.024;2023-10-13T20:24:46;6.70;;;2.80;;
24635;SDS011;12772;49.794;10.024;2023-10-13T20:28:48;5.25;;;2.83;;
24635;SDS011;12772;49.794;10.024;2023-10-13T20:32:50;3.03;;;2.72;;
24635;SDS011;12772;49.794;10.024;2023-10-13T20:36:52;4.68;;;2.83;;
24635;SDS011;12772;49.794;10.024;2023-10-13T20:41:01;5.97;;;3.17;;
24635;SDS011;12772;49.794;10.024;2023-10-13T20:45:04;7.63;;;3.08;;
24635;SDS011;12772;49.794;10.024;2023-10-13T20:49:06;6.32;;;2.97;;
24635;SDS011;12772;49.794;10.024;2023-10-13T20:53:12;4.55;;;2.75;;
24635;SDS011;12772;49.794;10.024;2023-10-13T20:57:14;6.40;;;2.88;;
24635;SDS011;12772;49.794;10.024;2023-10-13T21:01:18;4.13;;;2.80;;
24635;SDS011;12772;49.794;10.024;2023-10-13T21:05:22;5.22;;;2.85;;
24635;SDS011;12772;49.794;10.024;2023-10-13T21:09:24;3.63;;;3.00;;
24635;SDS011;12772;49.794;10.024;2023-10-13T21:13:26;7.68;;;2.95;;
24635;SDS011;12772;49.794;10.024;2023-10-13T21:17:28;7.85;;;3.63;;
24635;SDS011;12772;49.794;10.024;2023-10-13T21:21:30;4.25;;;2.85;;
24635;SDS011;12772;49.794;10.024;2023-10-13T21:25:37;4.63;;;2.70;;
24635;SDS011;12772;49.794;10.024;2023-10-13T21:29:41;3.90;;;2.97;;
24635;SDS011;12772;49.794;10.024;2023-10-13T21:33:54;3.67;;;2.75;;
24635;SDS011;12772;49.794;10.024;2023-10-13T21:37:56;5.03;;;2.65;;
24635;SDS011;12772;49.794;10.024;2023-10-13T21:41:58;4.10;;;3.40;;
24635;SDS011;12772;49.794;10.024;2023-10-13T21:46:06;7.47;;;3.00;;
24635;SDS011;12772;49.794;10.024;2023-10-13T21:50:09;3.88;;;2.95;;
24635;SDS011;12772;49.794;10.024;2023-10-13T21:54:16;3.88;;;3.30;;
24635;SDS011;12772;49.794;10.024;2023-10-13T21:58:18;5.30;;;2.88;;
24635;SDS011;12772;49.794;10.024;2023-10-13T22:02:22;3.75;;;2.75;;
24635;SDS011;12772;49.794;10.024;2023-10-13T22:06:24;5.00;;;3.15;;
24635;SDS011;12772;49.794;10.024;2023-10-13T22:10:27;8.70;;;2.90;;
24635;SDS011;12772;49.794;10.024;2023-10-13T22:14:32;5.85;;;3.10;;
24635;SDS011;12772;49.794;10.024;2023-10-13T22:18:35;5.57;;;3.10;;
24635;SDS011;12772;49.794;10.024;2023-10-13T22:22:38;5.75;;;3.20;;
24635;SDS011;12772;49.794;10.024;2023-10-13T22:26:40;6.45;;;3.00;;
24635;SDS011;12772;49.794;10.024;2023-10-13T22:30:43;3.63;;;3.05;;
24635;SDS011;12772;49.794;10.024;2023-10-13T22:34:45;4.50;;;2.72;;
24635;SDS011;12772;49.794;10.024;2023-10-13T22:38:51;8.35;;;3.03;;
24635;SDS011;12772;49.794;10.024;2023-10-13T22:42:54;4.15;;;3.10;;
24635;SDS011;12772;49.794;10.024;2023-10-13T22:47:07;6.20;;;3.28;;
24635;SDS011;12772;49.794;10.024;2023-10-13T22:51:11;5.78;;;3.25;;
24635;SDS011;12772;49.794;10.024;2023-10-13T22:55:13;5.57;;;3.08;;
24635;SDS011;12772;49.794;10.024;2023-10-13T22:59:21;3.75;;;2.67;;
24635;SDS011;12772;49.794;10.024;2023-10-13T23:03:29;5.43;;;2.92;;
24635;SDS011;12772;49.794;10.024;2023-10-13T23:07:39;4.75;;;2.70;;
24635;SDS011;12772;49.794;10.024;2023-10-13T23:12:00;5.13;;;3.35;;
24635;SDS011;12772;49.794;10.024;2023-10-13T23:16:05;3.95;;;2.97;;
24635;SDS011;12772;49.794;10.024;2023-10-13T23:20:08;3.58;;;2.80;;
24635;SDS011;12772;49.794;10.024;2023-10-13T23:24:12;4.65;;;3.00;;
24635;SDS011;12772;49.794;10.024;2023-10-13T23:28:14;4.75;;;2.38;;
24635;SDS011;12772;49.794;10.024;2023-10-13T23:32:16;3.38;;;2.95;;
24635;SDS011;12772;49.794;10.024;2023-10-13T23:36:18;5.30;;;3.17;;
24635;SDS011;12772;49.794;10.024;2023-10-13T23:40:20;6.88;;;3.00;;
24635;SDS011;12772;49.794;10.024;2023-10-13T23:44:33;4.53;;;3.10;;
24635;SDS011;12772;49.794;10.024;2023-10-13T23:48:35;3.95;;;3.20;;
24635;SDS011;12772;49.794;10.024;2023-10-13T23:52:38;4.55;;;2.70;;
24635;SDS011;12772;49.794;10.024;2023-10-13T23:56:40;5.22;;;3.00;;
